sensor_id;sensor_type;location;lat;lon;timestamp;pressure;altitude;pressure_sealevel;temperature;humidity
6208;BME280;3137;51.550;7.060;2022-12-19T00:01:21;101725.78;;;0.37;85.74
6208;BME280;3137;51.550;7.060;2022-12-19T00:03:51;101725.84;;;0.34;85.21
6208;BME280;3137;51.550;7.060;2022-12-19T00:06:19;101722.25;;;0.40;85.24
6208;BME280;3137;51.550;7.060;2022-12-19T00:08:48;101710.84;;;0.41;85.06
6208;BME280;3137;51.550;7.060;2022-12-19T00:11:15;101716.06;;;0.44;86.49
6208;BME280;3137;51.550;7.060;2022-12-19T00:13:42;101696.81;;;0.37;86.34
6208;BME280;3137;51.550;7.060;2022-12-19T00:16:11;101699.41;;;0.40;86.47
6208;BME280;3137;51.550;7.060;2022-12-19T00:18:39;101697.59;;;0.46;86.30
6208;BME280;3137;51.550;7.060;2022-12-19T00:21:06;101691.47;;;0.44;85.97
6208;BME280;3137;51.550;7.060;2022-12-19T00:23:34;101697.59;;;0.46;86.37
6208;BME280;3137;51.550;7.060;2022-12-19T00:26:09;101684.38;;;0.47;86.84
6208;BME280;3137;51.550;7.060;2022-12-19T00:28:35;101686.97;;;0.50;86.56
6208;BME280;3137;51.550;7.060;2022-12-19T00:31:02;101692.16;;;0.56;87.36
6208;BME280;3137;51.550;7.060;2022-12-19T00:33:29;101691.25;;;0.57;86.72
6208;BME280;3137;51.550;7.060;2022-12-19T00:36:03;101695.59;;;0.61;87.65
6208;BME280;3137;51.550;7.060;2022-12-19T00:38:31;101684.19;;;0.61;87.73
6208;BME280;3137;51.550;7.060;2022-12-19T00:43:34;101677.13;;;0.63;86.65
6208;BME280;3137;51.550;7.060;2022-12-19T00:46:06;101678.84;;;0.64;87.99
6208;BME280;3137;51.550;7.060;2022-12-19T00:48:34;101656.84;;;0.68;86.82
6208;BME280;3137;51.550;7.060;2022-12-19T00:51:02;101664.63;;;0.76;87.48
6208;BME280;3137;51.550;7.060;2022-12-19T00:53:33;101673.44;;;0.75;87.09
6208;BME280;3137;51.550;7.060;2022-12-19T00:56:01;101676.00;;;0.78;86.89
6208;BME280;3137;51.550;7.060;2022-12-19T00:58:28;101673.31;;;0.82;86.71
6208;BME280;3137;51.550;7.060;2022-12-19T01:01:08;101668.94;;;0.81;87.97
6208;BME280;3137;51.550;7.060;2022-12-19T01:03:35;101661.88;;;0.82;88.03
6208;BME280;3137;51.550;7.060;2022-12-19T01:06:02;101661.84;;;0.85;88.19
6208;BME280;3137;51.550;7.060;2022-12-19T01:08:29;101660.91;;;0.89;87.58
6208;BME280;3137;51.550;7.060;2022-12-19T01:10:57;101653.72;;;0.96;87.18
6208;BME280;3137;51.550;7.060;2022-12-19T01:13:25;101655.34;;;1.03;87.07
6208;BME280;3137;51.550;7.060;2022-12-19T01:15:52;101654.63;;;0.95;88.12
6208;BME280;3137;51.550;7.060;2022-12-19T01:18:18;101643.09;;;1.00;87.36
6208;BME280;3137;51.550;7.060;2022-12-19T01:20:46;101647.44;;;1.03;87.58
6208;BME280;3137;51.550;7.060;2022-12-19T01:23:16;101636.03;;;1.02;87.32
6208;BME280;3137;51.550;7.060;2022-12-19T01:25:47;101646.50;;;1.09;87.65
6208;BME280;3137;51.550;7.060;2022-12-19T01:28:17;101652.56;;;1.12;87.17
6208;BME280;3137;51.550;7.060;2022-12-19T01:30:44;101639.38;;;1.12;87.75
6208;BME280;3137;51.550;7.060;2022-12-19T01:33:12;101638.44;;;1.15;87.33
6208;BME280;3137;51.550;7.060;2022-12-19T01:35:39;101637.53;;;1.17;87.82
6208;BME280;3137;51.550;7.060;2022-12-19T01:38:17;101634.78;;;1.23;88.48
6208;BME280;3137;51.550;7.060;2022-12-19T01:40:51;101630.28;;;1.28;87.86
6208;BME280;3137;51.550;7.060;2022-12-19T01:43:19;101620.47;;;1.37;87.71
6208;BME280;3137;51.550;7.060;2022-12-19T01:45:54;101621.16;;;1.46;87.44
6208;BME280;3137;51.550;7.060;2022-12-19T01:48:32;101618.63;;;1.40;87.79
6208;BME280;3137;51.550;7.060;2022-12-19T01:51:16;101609.69;;;1.49;87.60
6208;BME280;3137;51.550;7.060;2022-12-19T01:53:48;101603.31;;;1.58;87.83
6208;BME280;3137;51.550;7.060;2022-12-19T01:56:18;101591.06;;;1.55;87.85
6208;BME280;3137;51.550;7.060;2022-12-19T01:58:49;101582.09;;;1.64;87.83
6208;BME280;3137;51.550;7.060;2022-12-19T02:01:23;101576.72;;;1.68;88.05
6208;BME280;3137;51.550;7.060;2022-12-19T02:03:50;101564.38;;;1.69;87.85
6208;BME280;3137;51.550;7.060;2022-12-19T02:06:18;101560.91;;;1.67;88.28
6208;BME280;3137;51.550;7.060;2022-12-19T02:08:46;101557.22;;;1.74;88.69
6208;BME280;3137;51.550;7.060;2022-12-19T02:11:13;101561.56;;;1.77;88.11
6208;BME280;3137;51.550;7.060;2022-12-19T02:13:40;101544.09;;;1.71;88.37
6208;BME280;3137;51.550;7.060;2022-12-19T02:21:44;101504.19;;;1.85;88.91
6208;BME280;3137;51.550;7.060;2022-12-19T02:24:44;101491.81;;;1.87;88.61
6208;BME280;3137;51.550;7.060;2022-12-19T02:27:30;101490.88;;;1.89;88.72
6208;BME280;3137;51.550;7.060;2022-12-19T02:33:07;101492.50;;;1.95;88.90
6208;BME280;3137;51.550;7.060;2022-12-19T02:35:55;101498.41;;;2.05;88.65
6208;BME280;3137;51.550;7.060;2022-12-19T02:38:30;101499.25;;;2.07;88.60
6208;BME280;3137;51.550;7.060;2022-12-19T02:41:09;101498.97;;;2.18;88.45
6208;BME280;3137;51.550;7.060;2022-12-19T02:43:41;101502.56;;;2.15;88.39
6208;BME280;3137;51.550;7.060;2022-12-19T02:46:14;101499.88;;;2.18;87.98
6208;BME280;3137;51.550;7.060;2022-12-19T02:48:42;101489.41;;;2.13;88.29
6208;BME280;3137;51.550;7.060;2022-12-19T02:51:09;101493.69;;;2.18;88.48
6208;BME280;3137;51.550;7.060;2022-12-19T02:53:37;101490.94;;;2.22;87.95
6208;BME280;3137;51.550;7.060;2022-12-19T02:56:10;101489.09;;;2.26;88.22
6208;BME280;3137;51.550;7.060;2022-12-19T02:58:49;101476.72;;;2.28;88.00
6208;BME280;3137;51.550;7.060;2022-12-19T03:01:41;101470.53;;;2.29;87.63
6208;BME280;3137;51.550;7.060;2022-12-19T03:04:43;101465.97;;;2.34;87.53
6208;BME280;3137;51.550;7.060;2022-12-19T03:07:21;101477.31;;;2.39;87.69
6208;BME280;3137;51.550;7.060;2022-12-19T03:10:02;101476.34;;;2.42;87.13
6208;BME280;3137;51.550;7.060;2022-12-19T03:12:37;101474.41;;;2.50;87.20
6208;BME280;3137;51.550;7.060;2022-12-19T03:15:06;101473.56;;;2.48;86.56
6208;BME280;3137;51.550;7.060;2022-12-19T03:17:35;101470.50;;;2.63;86.42
6208;BME280;3137;51.550;7.060;2022-12-19T03:20:25;101474.78;;;2.69;85.87
6208;BME280;3137;51.550;7.060;2022-12-19T03:22:53;101473.56;;;2.81;85.79
6208;BME280;3137;51.550;7.060;2022-12-19T03:25:20;101476.13;;;2.84;85.61
6208;BME280;3137;51.550;7.060;2022-12-19T03:27:49;101469.38;;;3.05;85.08
6208;BME280;3137;51.550;7.060;2022-12-19T03:30:17;101464.09;;;3.05;84.28
6208;BME280;3137;51.550;7.060;2022-12-19T03:32:45;101457.72;;;3.10;83.89
6208;BME280;3137;51.550;7.060;2022-12-19T03:35:17;101458.47;;;3.15;83.97
6208;BME280;3137;51.550;7.060;2022-12-19T03:37:46;101459.41;;;3.13;84.11
6208;BME280;3137;51.550;7.060;2022-12-19T03:40:18;101462.75;;;3.19;83.54
6208;BME280;3137;51.550;7.060;2022-12-19T03:42:47;101450.38;;;3.20;83.99
6208;BME280;3137;51.550;7.060;2022-12-19T03:45:56;101456.47;;;3.24;83.72
6208;BME280;3137;51.550;7.060;2022-12-19T03:48:30;101449.41;;;3.24;83.41
6208;BME280;3137;51.550;7.060;2022-12-19T03:56:48;101437.50;;;3.37;82.73
6208;BME280;3137;51.550;7.060;2022-12-19T03:59:21;101427.88;;;3.35;83.30
6208;BME280;3137;51.550;7.060;2022-12-19T04:01:52;101431.22;;;3.41;83.29
6208;BME280;3137;51.550;7.060;2022-12-19T04:04:20;101431.03;;;3.48;82.60
6208;BME280;3137;51.550;7.060;2022-12-19T04:06:48;101428.31;;;3.49;82.53
6208;BME280;3137;51.550;7.060;2022-12-19T04:09:15;101429.00;;;3.56;82.66
6208;BME280;3137;51.550;7.060;2022-12-19T04:11:58;101427.44;;;3.50;82.53
6208;BME280;3137;51.550;7.060;2022-12-19T04:14:28;101425.47;;;3.57;82.31
6208;BME280;3137;51.550;7.060;2022-12-19T04:17:25;101418.84;;;3.70;81.63
6208;BME280;3137;51.550;7.060;2022-12-19T04:20:03;101419.09;;;3.62;82.75
6208;BME280;3137;51.550;7.060;2022-12-19T04:25:17;101420.00;;;3.61;83.48
6208;BME280;3137;51.550;7.060;2022-12-19T04:27:49;101413.66;;;3.67;82.67
6208;BME280;3137;51.550;7.060;2022-12-19T04:30:18;101409.22;;;3.68;82.38
6208;BME280;3137;51.550;7.060;2022-12-19T04:32:45;101415.34;;;3.70;83.54
6208;BME280;3137;51.550;7.060;2022-12-19T04:35:12;101408.06;;;3.76;83.37
6208;BME280;3137;51.550;7.060;2022-12-19T04:37:39;101405.56;;;3.72;83.30
6208;BME280;3137;51.550;7.060;2022-12-19T04:40:07;101398.38;;;3.75;84.13
6208;BME280;3137;51.550;7.060;2022-12-19T04:42:34;101394.00;;;3.74;84.17
6208;BME280;3137;51.550;7.060;2022-12-19T04:45:00;101402.13;;;3.68;84.37
6208;BME280;3137;51.550;7.060;2022-12-19T04:47:27;101395.72;;;3.75;84.98
6208;BME280;3137;51.550;7.060;2022-12-19T04:49:53;101396.56;;;3.76;85.64
6208;BME280;3137;51.550;7.060;2022-12-19T04:52:20;101401.84;;;3.77;85.83
6208;BME280;3137;51.550;7.060;2022-12-19T04:54:46;101401.94;;;3.74;86.82
6208;BME280;3137;51.550;7.060;2022-12-19T04:57:12;101392.16;;;3.76;86.83
6208;BME280;3137;51.550;7.060;2022-12-19T04:59:39;101390.34;;;3.78;87.81
6208;BME280;3137;51.550;7.060;2022-12-19T05:02:05;101384.22;;;3.76;88.69
6208;BME280;3137;51.550;7.060;2022-12-19T05:04:32;101382.44;;;3.77;88.57
6208;BME280;3137;51.550;7.060;2022-12-19T05:06:58;101378.84;;;3.78;89.82
6208;BME280;3137;51.550;7.060;2022-12-19T05:09:25;101388.47;;;3.80;89.32
6208;BME280;3137;51.550;7.060;2022-12-19T05:11:51;101369.59;;;3.91;89.10
6208;BME280;3137;51.550;7.060;2022-12-19T05:14:18;101357.47;;;3.84;89.92
6208;BME280;3137;51.550;7.060;2022-12-19T05:16:44;101368.78;;;3.89;89.64
6208;BME280;3137;51.550;7.060;2022-12-19T05:19:10;101380.22;;;3.90;89.74
6208;BME280;3137;51.550;7.060;2022-12-19T05:21:37;101363.44;;;3.91;90.08
6208;BME280;3137;51.550;7.060;2022-12-19T05:24:04;101364.84;;;4.01;90.70
6208;BME280;3137;51.550;7.060;2022-12-19T05:26:30;101371.81;;;4.03;90.68
6208;BME280;3137;51.550;7.060;2022-12-19T05:28:56;101371.38;;;4.16;90.58
6208;BME280;3137;51.550;7.060;2022-12-19T05:31:23;101365.06;;;4.20;89.90
6208;BME280;3137;51.550;7.060;2022-12-19T05:33:49;101357.94;;;4.22;89.92
6208;BME280;3137;51.550;7.060;2022-12-19T05:36:16;101355.28;;;4.22;90.07
6208;BME280;3137;51.550;7.060;2022-12-19T05:38:43;101356.03;;;4.25;90.43
6208;BME280;3137;51.550;7.060;2022-12-19T05:41:14;101361.44;;;4.22;90.50
6208;BME280;3137;51.550;7.060;2022-12-19T05:43:43;101349.69;;;4.30;91.11
6208;BME280;3137;51.550;7.060;2022-12-19T05:46:09;101351.53;;;4.28;90.61
6208;BME280;3137;51.550;7.060;2022-12-19T05:48:37;101366.47;;;4.30;90.95
6208;BME280;3137;51.550;7.060;2022-12-19T05:51:03;101368.97;;;4.35;90.50
6208;BME280;3137;51.550;7.060;2022-12-19T05:53:30;101369.91;;;4.34;90.64
6208;BME280;3137;51.550;7.060;2022-12-19T05:56:04;101369.53;;;4.43;90.48
6208;BME280;3137;51.550;7.060;2022-12-19T05:58:34;101350.94;;;4.44;91.30
6208;BME280;3137;51.550;7.060;2022-12-19T06:01:06;101372.25;;;4.41;91.40
6208;BME280;3137;51.550;7.060;2022-12-19T06:03:33;101361.34;;;4.51;91.37
6208;BME280;3137;51.550;7.060;2022-12-19T06:06:10;101352.44;;;4.52;91.61
6208;BME280;3137;51.550;7.060;2022-12-19T06:08:37;101369.00;;;4.58;91.58
6208;BME280;3137;51.550;7.060;2022-12-19T06:11:05;101358.97;;;4.66;91.82
6208;BME280;3137;51.550;7.060;2022-12-19T06:13:33;101367.84;;;4.65;91.10
6208;BME280;3137;51.550;7.060;2022-12-19T06:16:05;101365.91;;;4.71;91.39
6208;BME280;3137;51.550;7.060;2022-12-19T06:18:32;101369.19;;;4.77;91.37
6208;BME280;3137;51.550;7.060;2022-12-19T06:21:04;101375.41;;;4.76;91.65
6208;BME280;3137;51.550;7.060;2022-12-19T06:23:33;101372.53;;;4.82;91.72
6208;BME280;3137;51.550;7.060;2022-12-19T06:26:01;101361.88;;;4.84;91.76
6208;BME280;3137;51.550;7.060;2022-12-19T06:28:29;101359.78;;;4.92;91.33
6208;BME280;3137;51.550;7.060;2022-12-19T06:30:56;101366.13;;;4.88;91.60
6208;BME280;3137;51.550;7.060;2022-12-19T06:33:23;101365.94;;;4.93;91.63
6208;BME280;3137;51.550;7.060;2022-12-19T06:36:05;101356.94;;;4.97;91.56
6208;BME280;3137;51.550;7.060;2022-12-19T06:38:32;101363.97;;;4.98;91.53
6208;BME280;3137;51.550;7.060;2022-12-19T06:40:59;101354.34;;;4.95;91.58
6208;BME280;3137;51.550;7.060;2022-12-19T06:43:45;101349.63;;;5.03;91.94
6208;BME280;3137;51.550;7.060;2022-12-19T06:46:18;101355.09;;;4.99;92.21
6208;BME280;3137;51.550;7.060;2022-12-19T06:48:44;101349.63;;;5.03;92.34
6208;BME280;3137;51.550;7.060;2022-12-19T06:51:11;101342.53;;;5.04;92.05
6208;BME280;3137;51.550;7.060;2022-12-19T06:53:37;101349.19;;;5.14;91.79
6208;BME280;3137;51.550;7.060;2022-12-19T06:56:04;101348.28;;;5.15;92.01
6208;BME280;3137;51.550;7.060;2022-12-19T06:58:31;101339.44;;;5.15;91.88
6208;BME280;3137;51.550;7.060;2022-12-19T07:00:58;101353.47;;;5.18;91.74
6208;BME280;3137;51.550;7.060;2022-12-19T07:03:29;101339.75;;;5.29;91.72
6208;BME280;3137;51.550;7.060;2022-12-19T07:05:57;101347.78;;;5.27;91.72
6208;BME280;3137;51.550;7.060;2022-12-19T07:08:23;101345.94;;;5.29;91.70
6208;BME280;3137;51.550;7.060;2022-12-19T07:10:50;101354.69;;;5.31;91.53
6208;BME280;3137;51.550;7.060;2022-12-19T07:13:18;101353.59;;;5.37;91.23
6208;BME280;3137;51.550;7.060;2022-12-19T07:15:44;101355.41;;;5.37;91.34
6208;BME280;3137;51.550;7.060;2022-12-19T07:18:11;101353.47;;;5.40;91.09
6208;BME280;3137;51.550;7.060;2022-12-19T07:20:39;101365.91;;;5.40;91.30
6208;BME280;3137;51.550;7.060;2022-12-19T07:23:13;101363.06;;;5.44;91.05
6208;BME280;3137;51.550;7.060;2022-12-19T07:25:42;101369.19;;;5.46;90.93
6208;BME280;3137;51.550;7.060;2022-12-19T07:28:08;101371.69;;;5.49;90.85
6208;BME280;3137;51.550;7.060;2022-12-19T07:30:35;101365.34;;;5.53;90.38
6208;BME280;3137;51.550;7.060;2022-12-19T07:33:01;101379.50;;;5.54;90.32
6208;BME280;3137;51.550;7.060;2022-12-19T07:35:28;101384.63;;;5.59;90.47
6208;BME280;3137;51.550;7.060;2022-12-19T07:38:00;101378.19;;;5.64;90.14
6208;BME280;3137;51.550;7.060;2022-12-19T07:40:27;101374.66;;;5.64;90.11
6208;BME280;3137;51.550;7.060;2022-12-19T07:42:54;101367.69;;;5.61;90.11
6208;BME280;3137;51.550;7.060;2022-12-19T07:45:23;101369.47;;;5.61;90.27
6208;BME280;3137;51.550;7.060;2022-12-19T07:47:50;101374.03;;;5.57;90.34
6208;BME280;3137;51.550;7.060;2022-12-19T07:50:16;101373.81;;;5.63;90.61
6208;BME280;3137;51.550;7.060;2022-12-19T07:52:43;101378.94;;;5.68;89.99
6208;BME280;3137;51.550;7.060;2022-12-19T07:55:09;101381.47;;;5.71;90.38
6208;BME280;3137;51.550;7.060;2022-12-19T07:57:36;101374.44;;;5.70;90.26
6208;BME280;3137;51.550;7.060;2022-12-19T08:00:03;101376.94;;;5.73;90.43
6208;BME280;3137;51.550;7.060;2022-12-19T08:02:37;101379.28;;;5.81;90.06
6208;BME280;3137;51.550;7.060;2022-12-19T08:05:04;101382.06;;;5.78;90.01
6208;BME280;3137;51.550;7.060;2022-12-19T08:07:31;101389.19;;;5.77;90.28
6208;BME280;3137;51.550;7.060;2022-12-19T08:09:58;101387.31;;;5.79;90.23
6208;BME280;3137;51.550;7.060;2022-12-19T08:12:24;101388.06;;;5.83;90.24
6208;BME280;3137;51.550;7.060;2022-12-19T08:14:52;101387.19;;;5.82;90.11
6208;BME280;3137;51.550;7.060;2022-12-19T08:17:22;101392.38;;;5.85;90.15
6208;BME280;3137;51.550;7.060;2022-12-19T08:19:49;101389.50;;;5.91;89.73
6208;BME280;3137;51.550;7.060;2022-12-19T08:22:15;101397.47;;;5.91;89.74
6208;BME280;3137;51.550;7.060;2022-12-19T08:24:42;101398.22;;;5.93;89.66
6208;BME280;3137;51.550;7.060;2022-12-19T08:27:08;101387.59;;;5.93;89.48
6208;BME280;3137;51.550;7.060;2022-12-19T08:29:34;101372.56;;;5.94;89.02
6208;BME280;3137;51.550;7.060;2022-12-19T08:32:01;101379.63;;;5.93;89.57
6208;BME280;3137;51.550;7.060;2022-12-19T08:34:27;101384.94;;;5.93;89.55
6208;BME280;3137;51.550;7.060;2022-12-19T08:36:54;101390.91;;;6.00;88.87
6208;BME280;3137;51.550;7.060;2022-12-19T08:39:20;101397.28;;;5.96;89.18
6208;BME280;3137;51.550;7.060;2022-12-19T08:41:47;101400.97;;;5.92;89.35
6208;BME280;3137;51.550;7.060;2022-12-19T08:44:13;101392.56;;;6.03;89.17
6208;BME280;3137;51.550;7.060;2022-12-19T08:46:40;101396.31;;;5.99;89.15
6208;BME280;3137;51.550;7.060;2022-12-19T08:49:15;101414.28;;;5.92;89.22
6208;BME280;3137;51.550;7.060;2022-12-19T08:51:41;101404.63;;;5.89;89.33
6208;BME280;3137;51.550;7.060;2022-12-19T08:54:07;101408.09;;;5.91;89.36
6208;BME280;3137;51.550;7.060;2022-12-19T08:56:37;101414.31;;;5.90;89.76
6208;BME280;3137;51.550;7.060;2022-12-19T08:59:13;101408.72;;;5.98;89.41
6208;BME280;3137;51.550;7.060;2022-12-19T09:01:44;101411.13;;;6.04;89.14
6208;BME280;3137;51.550;7.060;2022-12-19T09:04:11;101412.19;;;6.00;89.01
6208;BME280;3137;51.550;7.060;2022-12-19T09:06:57;101397.03;;;6.02;88.77
6208;BME280;3137;51.550;7.060;2022-12-19T09:09:24;101401.97;;;6.11;88.89
6208;BME280;3137;51.550;7.060;2022-12-19T09:11:50;101388.66;;;6.11;87.99
6208;BME280;3137;51.550;7.060;2022-12-19T09:14:17;101390.38;;;6.12;88.46
6208;BME280;3137;51.550;7.060;2022-12-19T09:16:47;101387.47;;;6.18;88.01
6208;BME280;3137;51.550;7.060;2022-12-19T09:19:13;101398.13;;;6.18;88.11
6208;BME280;3137;51.550;7.060;2022-12-19T09:21:42;101407.81;;;6.20;87.95
6208;BME280;3137;51.550;7.060;2022-12-19T09:24:09;101403.44;;;6.18;88.17
6208;BME280;3137;51.550;7.060;2022-12-19T09:26:36;101409.38;;;6.25;87.97
6208;BME280;3137;51.550;7.060;2022-12-19T09:29:04;101405.72;;;6.28;87.95
6208;BME280;3137;51.550;7.060;2022-12-19T09:31:45;101405.56;;;6.31;87.98
6208;BME280;3137;51.550;7.060;2022-12-19T09:34:12;101406.22;;;6.36;87.75
6208;BME280;3137;51.550;7.060;2022-12-19T09:36:38;101405.31;;;6.37;87.75
6208;BME280;3137;51.550;7.060;2022-12-19T09:39:04;101404.22;;;6.41;87.21
6208;BME280;3137;51.550;7.060;2022-12-19T09:44:28;101418.13;;;6.48;86.99
6208;BME280;3137;51.550;7.060;2022-12-19T09:49:41;101407.09;;;6.57;86.51
6208;BME280;3137;51.550;7.060;2022-12-19T09:52:18;101398.09;;;6.59;86.94
6208;BME280;3137;51.550;7.060;2022-12-19T09:54:56;101395.09;;;6.67;86.45
6208;BME280;3137;51.550;7.060;2022-12-19T10:00:10;101405.53;;;6.72;86.41
6208;BME280;3137;51.550;7.060;2022-12-19T10:05:25;101401.97;;;6.92;85.49
6208;BME280;3137;51.550;7.060;2022-12-19T10:11:06;101405.06;;;7.01;85.75
6208;BME280;3137;51.550;7.060;2022-12-19T10:14:06;101397.53;;;7.11;84.85
6208;BME280;3137;51.550;7.060;2022-12-19T10:20:18;101393.50;;;7.21;84.61
6208;BME280;3137;51.550;7.060;2022-12-19T10:23:13;101397.88;;;7.22;84.79
6208;BME280;3137;51.550;7.060;2022-12-19T10:26:35;101399.53;;;7.25;84.71
6208;BME280;3137;51.550;7.060;2022-12-19T10:31:40;101398.53;;;7.28;85.25
6208;BME280;3137;51.550;7.060;2022-12-19T10:34:18;101388.66;;;7.30;84.61
6208;BME280;3137;51.550;7.060;2022-12-19T10:36:48;101384.94;;;7.34;84.75
6208;BME280;3137;51.550;7.060;2022-12-19T10:39:54;101381.47;;;7.32;84.70
6208;BME280;3137;51.550;7.060;2022-12-19T10:42:44;101382.09;;;7.37;84.63
6208;BME280;3137;51.550;7.060;2022-12-19T10:45:17;101377.13;;;7.48;83.88
6208;BME280;3137;51.550;7.060;2022-12-19T10:47:54;101373.41;;;7.52;83.67
6208;BME280;3137;51.550;7.060;2022-12-19T10:50:28;101373.22;;;7.55;82.86
6208;BME280;3137;51.550;7.060;2022-12-19T11:04:10;101375.47;;;7.82;82.23
6208;BME280;3137;51.550;7.060;2022-12-19T11:06:50;101384.25;;;7.84;82.12
6208;BME280;3137;51.550;7.060;2022-12-19T11:09:27;101372.66;;;7.85;81.30
6208;BME280;3137;51.550;7.060;2022-12-19T11:12:15;101372.41;;;7.89;81.03
6208;BME280;3137;51.550;7.060;2022-12-19T11:15:13;101362.78;;;7.87;81.30
6208;BME280;3137;51.550;7.060;2022-12-19T11:18:08;101355.50;;;7.91;80.71
6208;BME280;3137;51.550;7.060;2022-12-19T11:21:03;101358.84;;;7.94;81.03
6208;BME280;3137;51.550;7.060;2022-12-19T11:23:53;101354.25;;;7.98;80.95
6208;BME280;3137;51.550;7.060;2022-12-19T11:26:48;101357.44;;;8.04;80.77
6208;BME280;3137;51.550;7.060;2022-12-19T11:29:41;101354.00;;;8.02;81.02
6208;BME280;3137;51.550;7.060;2022-12-19T11:32:35;101348.75;;;8.01;81.33
6208;BME280;3137;51.550;7.060;2022-12-19T11:35:17;101358.09;;;8.09;80.43
6208;BME280;3137;51.550;7.060;2022-12-19T11:37:55;101343.88;;;8.09;79.80
6208;BME280;3137;51.550;7.060;2022-12-19T11:40:45;101357.31;;;8.07;80.17
6208;BME280;3137;51.550;7.060;2022-12-19T11:43:33;101365.31;;;8.07;79.40
6208;BME280;3137;51.550;7.060;2022-12-19T11:47:31;101371.31;;;8.11;79.49
6208;BME280;3137;51.550;7.060;2022-12-19T11:49:33;101354.63;;;8.07;78.98
6208;BME280;3137;51.550;7.060;2022-12-19T11:52:15;101344.09;;;8.04;79.44
6208;BME280;3137;51.550;7.060;2022-12-19T11:55:14;101358.38;;;8.03;78.63
6208;BME280;3137;51.550;7.060;2022-12-19T11:57:42;101356.50;;;8.05;79.37
6208;BME280;3137;51.550;7.060;2022-12-19T12:00:16;101347.72;;;8.03;79.20
6208;BME280;3137;51.550;7.060;2022-12-19T12:05:41;101351.34;;;8.02;78.96
6208;BME280;3137;51.550;7.060;2022-12-19T12:11:52;101361.69;;;8.08;78.80
6208;BME280;3137;51.550;7.060;2022-12-19T12:18:08;101354.91;;;8.19;78.36
6208;BME280;3137;51.550;7.060;2022-12-19T12:21:23;101345.91;;;8.21;78.00
6208;BME280;3137;51.550;7.060;2022-12-19T12:27:41;101336.66;;;8.28;77.75
6208;BME280;3137;51.550;7.060;2022-12-19T12:30:40;101334.97;;;8.26;78.15
6208;BME280;3137;51.550;7.060;2022-12-19T12:36:24;101329.66;;;8.26;77.49
6208;BME280;3137;51.550;7.060;2022-12-19T12:39:18;101327.28;;;8.37;76.55
6208;BME280;3137;51.550;7.060;2022-12-19T12:42:13;101322.91;;;8.36;76.24
6208;BME280;3137;51.550;7.060;2022-12-19T12:44:44;101320.06;;;8.39;76.56
6208;BME280;3137;51.550;7.060;2022-12-19T12:47:22;101315.31;;;8.46;75.32
6208;BME280;3137;51.550;7.060;2022-12-19T12:49:54;101306.72;;;8.39;75.41
6208;BME280;3137;51.550;7.060;2022-12-19T12:52:35;101302.97;;;8.43;75.84
6208;BME280;3137;51.550;7.060;2022-12-19T12:55:11;101296.09;;;8.38;76.01
6208;BME280;3137;51.550;7.060;2022-12-19T12:57:39;101293.16;;;8.44;75.64
6208;BME280;3137;51.550;7.060;2022-12-19T13:00:27;101295.66;;;8.47;75.09
6208;BME280;3137;51.550;7.060;2022-12-19T13:06:02;101295.81;;;8.44;75.63
6208;BME280;3137;51.550;7.060;2022-12-19T13:11:12;101294.72;;;8.48;75.17
6208;BME280;3137;51.550;7.060;2022-12-19T13:14:08;101288.34;;;8.50;74.60
6208;BME280;3137;51.550;7.060;2022-12-19T13:16:50;101281.28;;;8.49;74.56
6208;BME280;3137;51.550;7.060;2022-12-19T13:24:51;101277.44;;;8.55;74.65
6208;BME280;3137;51.550;7.060;2022-12-19T13:32:31;101277.25;;;8.58;73.94
6208;BME280;3137;51.550;7.060;2022-12-19T13:35:01;101276.22;;;8.61;73.65
6208;BME280;3137;51.550;7.060;2022-12-19T13:38:21;101272.34;;;8.66;73.43
6208;BME280;3137;51.550;7.060;2022-12-19T13:41:27;101272.28;;;8.68;72.83
6208;BME280;3137;51.550;7.060;2022-12-19T13:44:13;101275.53;;;8.73;72.54
6208;BME280;3137;51.550;7.060;2022-12-19T13:46:44;101263.56;;;8.80;71.67
6208;BME280;3137;51.550;7.060;2022-12-19T13:49:19;101261.94;;;8.78;71.19
6208;BME280;3137;51.550;7.060;2022-12-19T13:51:55;101266.31;;;8.79;71.27
6208;BME280;3137;51.550;7.060;2022-12-19T13:54:26;101267.28;;;8.78;71.72
6208;BME280;3137;51.550;7.060;2022-12-19T13:56:57;101270.56;;;8.83;70.57
6208;BME280;3137;51.550;7.060;2022-12-19T13:59:27;101263.41;;;8.83;70.56
6208;BME280;3137;51.550;7.060;2022-12-19T14:02:06;101269.16;;;8.76;70.76
6208;BME280;3137;51.550;7.060;2022-12-19T14:04:39;101266.25;;;8.64;71.81
6208;BME280;3137;51.550;7.060;2022-12-19T14:10:05;101251.53;;;8.57;71.52
6208;BME280;3137;51.550;7.060;2022-12-19T14:12:56;101247.53;;;8.48;71.74
6208;BME280;3137;51.550;7.060;2022-12-19T14:16:02;101237.56;;;8.35;72.09
6208;BME280;3137;51.550;7.060;2022-12-19T14:18:31;101239.38;;;8.34;72.13
6208;BME280;3137;51.550;7.060;2022-12-19T14:26:44;101226.59;;;8.23;71.13
6208;BME280;3137;51.550;7.060;2022-12-19T14:29:40;101220.66;;;8.18;71.89
6208;BME280;3137;51.550;7.060;2022-12-19T14:32:29;101229.28;;;8.23;71.89
6208;BME280;3137;51.550;7.060;2022-12-19T14:35:19;101227.50;;;8.24;71.72
6208;BME280;3137;51.550;7.060;2022-12-19T14:38:07;101234.72;;;8.22;71.15
6208;BME280;3137;51.550;7.060;2022-12-19T14:40:54;101227.03;;;8.16;71.14
6208;BME280;3137;51.550;7.060;2022-12-19T14:43:35;101229.16;;;8.09;71.55
6208;BME280;3137;51.550;7.060;2022-12-19T14:46:28;101226.41;;;8.10;71.30
6208;BME280;3137;51.550;7.060;2022-12-19T14:49:32;101237.09;;;8.10;71.29
6208;BME280;3137;51.550;7.060;2022-12-19T14:58:29;101232.84;;;8.06;71.75
6208;BME280;3137;51.550;7.060;2022-12-19T15:01:24;101231.44;;;7.99;72.08
6208;BME280;3137;51.550;7.060;2022-12-19T15:04:03;101227.00;;;8.00;71.86
6208;BME280;3137;51.550;7.060;2022-12-19T15:06:53;101221.56;;;8.01;71.73
6208;BME280;3137;51.550;7.060;2022-12-19T15:12:48;101214.53;;;8.00;71.35
6208;BME280;3137;51.550;7.060;2022-12-19T15:16:02;101209.19;;;8.00;71.80
6208;BME280;3137;51.550;7.060;2022-12-19T15:21:04;101185.97;;;8.02;71.48
6208;BME280;3137;51.550;7.060;2022-12-19T15:23:31;101182.16;;;8.06;71.33
6208;BME280;3137;51.550;7.060;2022-12-19T15:26:04;101174.41;;;8.02;71.51
6208;BME280;3137;51.550;7.060;2022-12-19T15:28:39;101167.28;;;8.02;71.27
6208;BME280;3137;51.550;7.060;2022-12-19T15:31:16;101171.66;;;8.03;70.99
6208;BME280;3137;51.550;7.060;2022-12-19T15:33:47;101173.13;;;8.09;70.53
6208;BME280;3137;51.550;7.060;2022-12-19T15:36:33;101178.56;;;8.07;70.88
6208;BME280;3137;51.550;7.060;2022-12-19T15:38:59;101173.38;;;8.04;71.37
6208;BME280;3137;51.550;7.060;2022-12-19T15:41:26;101176.16;;;8.03;71.34
6208;BME280;3137;51.550;7.060;2022-12-19T15:43:52;101178.03;;;8.01;71.33